sensor_id;sensor_type;location;lat;lon;timestamp;temperature;humidity
27544;DHT22;17996;51.056;3.656;2022-10-19T00:00:15;13.20;99.90
27544;DHT22;17996;51.056;3.656;2022-10-19T00:02:41;13.20;99.90
27544;DHT22;17996;51.056;3.656;2022-10-19T00:05:07;13.30;99.90
27544;DHT22;17996;51.056;3.656;2022-10-19T00:07:33;13.20;99.90
27544;DHT22;17996;51.056;3.656;2022-10-19T00:09:58;13.20;99.90
27544;DHT22;17996;51.056;3.656;2022-10-19T00:12:24;13.20;99.90
27544;DHT22;17996;51.056;3.656;2022-10-19T00:14:50;13.10;99.90
27544;DHT22;17996;51.056;3.656;2022-10-19T00:17:15;13.20;99.90
27544;DHT22;17996;51.056;3.656;2022-10-19T00:19:42;13.20;99.90
27544;DHT22;17996;51.056;3.656;2022-10-19T00:22:07;13.30;99.90
27544;DHT22;17996;51.056;3.656;2022-10-19T00:24:33;13.20;99.90
27544;DHT22;17996;51.056;3.656;2022-10-19T00:26:59;13.10;99.90
27544;DHT22;17996;51.056;3.656;2022-10-19T00:29:26;13.10;99.90
27544;DHT22;17996;51.056;3.656;2022-10-19T00:31:52;13.10;99.90
27544;DHT22;17996;51.056;3.656;2022-10-19T00:34:18;13.20;99.90
27544;DHT22;17996;51.056;3.656;2022-10-19T00:36:43;13.10;99.90
27544;DHT22;17996;51.056;3.656;2022-10-19T00:39:11;13.10;99.90
27544;DHT22;17996;51.056;3.656;2022-10-19T00:41:37;13.10;99.90
27544;DHT22;17996;51.056;3.656;2022-10-19T00:46:40;13.10;99.90
27544;DHT22;17996;51.056;3.656;2022-10-19T00:49:19;13.10;99.90
27544;DHT22;17996;51.056;3.656;2022-10-19T00:51:51;13.00;99.90
27544;DHT22;17996;51.056;3.656;2022-10-19T00:54:17;13.00;99.90
27544;DHT22;17996;51.056;3.656;2022-10-19T00:56:45;13.00;99.90
27544;DHT22;17996;51.056;3.656;2022-10-19T00:59:14;13.00;99.90
27544;DHT22;17996;51.056;3.656;2022-10-19T01:01:42;12.90;99.90
27544;DHT22;17996;51.056;3.656;2022-10-19T01:04:09;12.80;99.90
27544;DHT22;17996;51.056;3.656;2022-10-19T01:06:35;12.80;99.90
27544;DHT22;17996;51.056;3.656;2022-10-19T01:09:04;13.00;99.90
27544;DHT22;17996;51.056;3.656;2022-10-19T01:25:23;12.80;99.90
27544;DHT22;17996;51.056;3.656;2022-10-19T01:31:15;12.70;99.90
27544;DHT22;17996;51.056;3.656;2022-10-19T01:38:48;12.90;99.90
27544;DHT22;17996;51.056;3.656;2022-10-19T01:41:40;12.60;99.90
27544;DHT22;17996;51.056;3.656;2022-10-19T01:44:16;12.60;99.90
27544;DHT22;17996;51.056;3.656;2022-10-19T01:46:48;12.70;99.90
27544;DHT22;17996;51.056;3.656;2022-10-19T01:51:50;12.70;99.90
27544;DHT22;17996;51.056;3.656;2022-10-19T01:54:20;12.60;99.90
27544;DHT22;17996;51.056;3.656;2022-10-19T01:56:47;12.60;99.90
27544;DHT22;17996;51.056;3.656;2022-10-19T01:59:15;12.60;99.90
27544;DHT22;17996;51.056;3.656;2022-10-19T02:01:44;12.70;99.90
27544;DHT22;17996;51.056;3.656;2022-10-19T02:04:13;12.60;99.90
27544;DHT22;17996;51.056;3.656;2022-10-19T02:06:41;12.60;99.90
27544;DHT22;17996;51.056;3.656;2022-10-19T02:09:07;12.60;99.90
27544;DHT22;17996;51.056;3.656;2022-10-19T02:11:33;12.70;99.90
27544;DHT22;17996;51.056;3.656;2022-10-19T02:14:04;12.60;99.90
27544;DHT22;17996;51.056;3.656;2022-10-19T02:16:35;12.60;99.90
27544;DHT22;17996;51.056;3.656;2022-10-19T02:19:05;12.60;99.90
27544;DHT22;17996;51.056;3.656;2022-10-19T02:21:33;12.50;99.90
27544;DHT22;17996;51.056;3.656;2022-10-19T02:23:59;12.50;99.90
27544;DHT22;17996;51.056;3.656;2022-10-19T02:26:25;12.50;99.90
27544;DHT22;17996;51.056;3.656;2022-10-19T02:28:54;12.50;99.90
27544;DHT22;17996;51.056;3.656;2022-10-19T02:31:20;12.60;99.90
27544;DHT22;17996;51.056;3.656;2022-10-19T02:33:47;12.50;99.90
27544;DHT22;17996;51.056;3.656;2022-10-19T02:36:13;12.40;99.90
27544;DHT22;17996;51.056;3.656;2022-10-19T02:38:40;12.60;99.90
27544;DHT22;17996;51.056;3.656;2022-10-19T02:41:23;12.40;99.90
27544;DHT22;17996;51.056;3.656;2022-10-19T02:43:55;12.40;99.90
27544;DHT22;17996;51.056;3.656;2022-10-19T02:46:30;12.40;99.90
27544;DHT22;17996;51.056;3.656;2022-10-19T02:48:57;12.40;99.90
27544;DHT22;17996;51.056;3.656;2022-10-19T02:52:07;12.50;99.90
27544;DHT22;17996;51.056;3.656;2022-10-19T02:54:32;12.50;99.90
27544;DHT22;17996;51.056;3.656;2022-10-19T02:56:58;12.30;99.90
27544;DHT22;17996;51.056;3.656;2022-10-19T02:59:24;12.30;99.90
27544;DHT22;17996;51.056;3.656;2022-10-19T03:01:51;12.30;99.90
27544;DHT22;17996;51.056;3.656;2022-10-19T03:04:16;12.20;99.90
27544;DHT22;17996;51.056;3.656;2022-10-19T03:06:43;12.40;99.90
27544;DHT22;17996;51.056;3.656;2022-10-19T03:09:08;12.30;99.90
27544;DHT22;17996;51.056;3.656;2022-10-19T03:11:34;12.20;99.90
27544;DHT22;17996;51.056;3.656;2022-10-19T03:14:02;12.30;99.90
27544;DHT22;17996;51.056;3.656;2022-10-19T03:16:27;12.20;99.90
27544;DHT22;17996;51.056;3.656;2022-10-19T03:18:53;12.30;99.90
27544;DHT22;17996;51.056;3.656;2022-10-19T03:21:19;12.20;99.90
27544;DHT22;17996;51.056;3.656;2022-10-19T03:23:45;12.40;99.90
27544;DHT22;17996;51.056;3.656;2022-10-19T03:26:13;12.20;99.90
27544;DHT22;17996;51.056;3.656;2022-10-19T03:28:39;12.20;99.90
27544;DHT22;17996;51.056;3.656;2022-10-19T03:31:05;12.20;99.90
27544;DHT22;17996;51.056;3.656;2022-10-19T03:33:31;12.20;99.90
27544;DHT22;17996;51.056;3.656;2022-10-19T03:38:42;12.30;99.90
27544;DHT22;17996;51.056;3.656;2022-10-19T03:41:09;12.40;99.90
27544;DHT22;17996;51.056;3.656;2022-10-19T03:43:35;12.10;99.90
27544;DHT22;17996;51.056;3.656;2022-10-19T03:46:01;12.30;99.90
27544;DHT22;17996;51.056;3.656;2022-10-19T03:48:28;12.10;99.90
27544;DHT22;17996;51.056;3.656;2022-10-19T03:51:11;12.10;99.90
27544;DHT22;17996;51.056;3.656;2022-10-19T03:53:38;12.20;99.90
27544;DHT22;17996;51.056;3.656;2022-10-19T03:56:15;12.10;99.90
27544;DHT22;17996;51.056;3.656;2022-10-19T03:58:43;12.20;99.90
27544;DHT22;17996;51.056;3.656;2022-10-19T04:01:14;12.10;99.90
27544;DHT22;17996;51.056;3.656;2022-10-19T04:03:41;12.10;99.90
27544;DHT22;17996;51.056;3.656;2022-10-19T04:06:17;12.20;99.90
27544;DHT22;17996;51.056;3.656;2022-10-19T04:08:44;12.00;99.90
27544;DHT22;17996;51.056;3.656;2022-10-19T04:11:19;12.10;99.90
27544;DHT22;17996;51.056;3.656;2022-10-19T04:13:47;12.00;99.90
27544;DHT22;17996;51.056;3.656;2022-10-19T04:16:14;12.10;99.90
27544;DHT22;17996;51.056;3.656;2022-10-19T04:18:40;12.10;99.90
27544;DHT22;17996;51.056;3.656;2022-10-19T04:21:06;12.00;99.90
27544;DHT22;17996;51.056;3.656;2022-10-19T04:23:34;12.00;99.90
27544;DHT22;17996;51.056;3.656;2022-10-19T04:26:07;12.00;99.90
27544;DHT22;17996;51.056;3.656;2022-10-19T04:28:33;12.00;99.90
27544;DHT22;17996;51.056;3.656;2022-10-19T04:31:05;12.00;99.90
27544;DHT22;17996;51.056;3.656;2022-10-19T04:33:32;11.90;99.90
27544;DHT22;17996;51.056;3.656;2022-10-19T04:36:01;11.90;99.90
27544;DHT22;17996;51.056;3.656;2022-10-19T04:38:28;12.00;99.90
27544;DHT22;17996;51.056;3.656;2022-10-19T04:40:54;12.10;99.90
27544;DHT22;17996;51.056;3.656;2022-10-19T04:43:21;12.00;99.90
27544;DHT22;17996;51.056;3.656;2022-10-19T04:45:46;11.80;99.90
27544;DHT22;17996;51.056;3.656;2022-10-19T04:48:12;11.80;99.90
27544;DHT22;17996;51.056;3.656;2022-10-19T04:50:37;11.80;99.90
27544;DHT22;17996;51.056;3.656;2022-10-19T04:53:03;11.90;99.90
27544;DHT22;17996;51.056;3.656;2022-10-19T04:55:30;11.90;99.90
27544;DHT22;17996;51.056;3.656;2022-10-19T04:57:55;11.80;99.90
27544;DHT22;17996;51.056;3.656;2022-10-19T05:00:21;12.00;99.90
27544;DHT22;17996;51.056;3.656;2022-10-19T05:02:47;11.80;99.90
27544;DHT22;17996;51.056;3.656;2022-10-19T05:05:13;12.00;99.90
27544;DHT22;17996;51.056;3.656;2022-10-19T05:07:39;11.80;99.90
27544;DHT22;17996;51.056;3.656;2022-10-19T05:10:07;11.80;99.90
27544;DHT22;17996;51.056;3.656;2022-10-19T05:12:34;11.80;99.90
27544;DHT22;17996;51.056;3.656;2022-10-19T05:15:00;11.90;99.90
27544;DHT22;17996;51.056;3.656;2022-10-19T05:17:29;11.80;99.90
27544;DHT22;17996;51.056;3.656;2022-10-19T05:19:55;11.70;99.90
27544;DHT22;17996;51.056;3.656;2022-10-19T05:22:20;11.90;99.90
27544;DHT22;17996;51.056;3.656;2022-10-19T05:24:46;11.70;99.90
27544;DHT22;17996;51.056;3.656;2022-10-19T05:27:12;11.70;99.90
27544;DHT22;17996;51.056;3.656;2022-10-19T05:29:38;11.60;99.90
27544;DHT22;17996;51.056;3.656;2022-10-19T05:32:03;11.60;99.90
27544;DHT22;17996;51.056;3.656;2022-10-19T05:34:29;11.60;99.90
27544;DHT22;17996;51.056;3.656;2022-10-19T05:36:55;11.60;99.90
27544;DHT22;17996;51.056;3.656;2022-10-19T05:39:22;11.80;99.90
27544;DHT22;17996;51.056;3.656;2022-10-19T05:41:47;11.60;99.90
27544;DHT22;17996;51.056;3.656;2022-10-19T05:44:16;11.60;99.90
27544;DHT22;17996;51.056;3.656;2022-10-19T05:46:41;11.60;99.90
27544;DHT22;17996;51.056;3.656;2022-10-19T05:49:09;11.60;99.90
27544;DHT22;17996;51.056;3.656;2022-10-19T05:51:35;11.60;99.90
27544;DHT22;17996;51.056;3.656;2022-10-19T05:54:01;11.60;99.90
27544;DHT22;17996;51.056;3.656;2022-10-19T05:56:28;11.60;99.90
27544;DHT22;17996;51.056;3.656;2022-10-19T05:58:56;11.70;99.90
27544;DHT22;17996;51.056;3.656;2022-10-19T06:01:22;11.60;99.90
27544;DHT22;17996;51.056;3.656;2022-10-19T06:03:51;11.50;99.90
27544;DHT22;17996;51.056;3.656;2022-10-19T06:06:19;11.60;99.90
27544;DHT22;17996;51.056;3.656;2022-10-19T06:08:46;11.60;99.90
27544;DHT22;17996;51.056;3.656;2022-10-19T06:11:21;11.50;99.90
27544;DHT22;17996;51.056;3.656;2022-10-19T06:13:49;11.50;99.90
27544;DHT22;17996;51.056;3.656;2022-10-19T06:16:16;11.70;99.90
27544;DHT22;17996;51.056;3.656;2022-10-19T06:18:42;11.70;99.90
27544;DHT22;17996;51.056;3.656;2022-10-19T06:21:20;11.50;99.90
27544;DHT22;17996;51.056;3.656;2022-10-19T06:23:50;11.50;99.90
27544;DHT22;17996;51.056;3.656;2022-10-19T06:26:16;11.70;99.90
27544;DHT22;17996;51.056;3.656;2022-10-19T06:28:43;11.50;99.90
27544;DHT22;17996;51.056;3.656;2022-10-19T06:31:09;11.70;99.90
27544;DHT22;17996;51.056;3.656;2022-10-19T06:33:35;11.50;99.90
27544;DHT22;17996;51.056;3.656;2022-10-19T06:36:09;11.50;99.90
27544;DHT22;17996;51.056;3.656;2022-10-19T06:38:36;11.50;99.90
27544;DHT22;17996;51.056;3.656;2022-10-19T06:41:01;11.50;99.90
27544;DHT22;17996;51.056;3.656;2022-10-19T06:43:27;11.50;99.90
27544;DHT22;17996;51.056;3.656;2022-10-19T06:45:53;11.40;99.90
27544;DHT22;17996;51.056;3.656;2022-10-19T06:48:19;11.40;99.90
27544;DHT22;17996;51.056;3.656;2022-10-19T06:50:45;11.50;99.90
27544;DHT22;17996;51.056;3.656;2022-10-19T06:53:12;11.60;99.90
27544;DHT22;17996;51.056;3.656;2022-10-19T06:55:38;11.60;99.90
27544;DHT22;17996;51.056;3.656;2022-10-19T06:58:03;11.60;99.90
27544;DHT22;17996;51.056;3.656;2022-10-19T07:00:30;11.50;99.90
27544;DHT22;17996;51.056;3.656;2022-10-19T07:02:57;11.50;99.90
27544;DHT22;17996;51.056;3.656;2022-10-19T07:05:23;11.60;99.90
27544;DHT22;17996;51.056;3.656;2022-10-19T07:07:49;11.60;99.90
27544;DHT22;17996;51.056;3.656;2022-10-19T07:10:14;11.60;99.90
27544;DHT22;17996;51.056;3.656;2022-10-19T07:12:40;11.70;99.90
27544;DHT22;17996;51.056;3.656;2022-10-19T07:15:06;11.70;99.90
27544;DHT22;17996;51.056;3.656;2022-10-19T07:17:32;11.70;99.90
27544;DHT22;17996;51.056;3.656;2022-10-19T07:19:57;11.80;99.90
27544;DHT22;17996;51.056;3.656;2022-10-19T07:22:23;11.80;99.90
27544;DHT22;17996;51.056;3.656;2022-10-19T07:24:50;11.80;99.90
27544;DHT22;17996;51.056;3.656;2022-10-19T07:27:16;11.80;99.90
27544;DHT22;17996;51.056;3.656;2022-10-19T07:29:42;11.90;99.90
27544;DHT22;17996;51.056;3.656;2022-10-19T07:32:08;11.90;99.90
27544;DHT22;17996;51.056;3.656;2022-10-19T07:34:33;12.00;99.90
27544;DHT22;17996;51.056;3.656;2022-10-19T07:36:59;11.90;99.90
27544;DHT22;17996;51.056;3.656;2022-10-19T07:39:25;11.90;99.90
27544;DHT22;17996;51.056;3.656;2022-10-19T07:41:51;11.90;99.90
27544;DHT22;17996;51.056;3.656;2022-10-19T07:44:17;12.00;99.90
27544;DHT22;17996;51.056;3.656;2022-10-19T07:46:43;12.10;99.90
27544;DHT22;17996;51.056;3.656;2022-10-19T07:49:13;12.00;99.90
27544;DHT22;17996;51.056;3.656;2022-10-19T07:51:40;12.10;99.90
27544;DHT22;17996;51.056;3.656;2022-10-19T07:54:06;12.10;99.90
27544;DHT22;17996;51.056;3.656;2022-10-19T07:56:33;12.10;99.90
27544;DHT22;17996;51.056;3.656;2022-10-19T07:58:59;12.20;99.90
27544;DHT22;17996;51.056;3.656;2022-10-19T08:01:30;12.20;99.90
27544;DHT22;17996;51.056;3.656;2022-10-19T08:03:58;12.30;99.90
27544;DHT22;17996;51.056;3.656;2022-10-19T08:06:24;12.30;99.90
27544;DHT22;17996;51.056;3.656;2022-10-19T08:08:50;12.40;99.90
27544;DHT22;17996;51.056;3.656;2022-10-19T08:11:19;12.20;99.90
27544;DHT22;17996;51.056;3.656;2022-10-19T08:13:45;12.20;99.90
27544;DHT22;17996;51.056;3.656;2022-10-19T08:16:23;12.30;99.90
27544;DHT22;17996;51.056;3.656;2022-10-19T08:18:51;12.20;99.90
27544;DHT22;17996;51.056;3.656;2022-10-19T08:21:16;12.30;99.90
27544;DHT22;17996;51.056;3.656;2022-10-19T08:23:42;12.30;99.90
27544;DHT22;17996;51.056;3.656;2022-10-19T08:26:08;12.40;99.90
27544;DHT22;17996;51.056;3.656;2022-10-19T08:28:33;12.30;99.90
27544;DHT22;17996;51.056;3.656;2022-10-19T08:31:42;12.40;99.90
27544;DHT22;17996;51.056;3.656;2022-10-19T08:34:00;12.40;99.90
27544;DHT22;17996;51.056;3.656;2022-10-19T08:36:26;12.50;99.90
27544;DHT22;17996;51.056;3.656;2022-10-19T08:38:55;12.50;99.90
27544;DHT22;17996;51.056;3.656;2022-10-19T08:46:59;12.60;99.90
27544;DHT22;17996;51.056;3.656;2022-10-19T08:49:29;12.70;99.90
27544;DHT22;17996;51.056;3.656;2022-10-19T08:52:03;12.70;99.90
27544;DHT22;17996;51.056;3.656;2022-10-19T08:54:54;12.70;99.90
27544;DHT22;17996;51.056;3.656;2022-10-19T08:57:33;12.70;99.90
27544;DHT22;17996;51.056;3.656;2022-10-19T09:00:22;12.80;99.90
27544;DHT22;17996;51.056;3.656;2022-10-19T09:08:08;12.90;99.90
27544;DHT22;17996;51.056;3.656;2022-10-19T09:10:40;13.00;99.90
27544;DHT22;17996;51.056;3.656;2022-10-19T09:15:56;13.10;99.90
27544;DHT22;17996;51.056;3.656;2022-10-19T09:18:23;13.20;99.90
27544;DHT22;17996;51.056;3.656;2022-10-19T09:20:53;13.30;99.90
27544;DHT22;17996;51.056;3.656;2022-10-19T09:23:52;13.10;99.90
27544;DHT22;17996;51.056;3.656;2022-10-19T09:26:24;13.10;99.90
27544;DHT22;17996;51.056;3.656;2022-10-19T09:29:26;13.20;99.90
27544;DHT22;17996;51.056;3.656;2022-10-19T09:31:54;13.20;99.90
27544;DHT22;17996;51.056;3.656;2022-10-19T09:36:57;13.20;99.90
27544;DHT22;17996;51.056;3.656;2022-10-19T09:39:24;13.30;99.90
27544;DHT22;17996;51.056;3.656;2022-10-19T09:44:24;13.40;99.90
27544;DHT22;17996;51.056;3.656;2022-10-19T09:52:55;13.50;99.90
27544;DHT22;17996;51.056;3.656;2022-10-19T09:55:40;13.50;99.90
27544;DHT22;17996;51.056;3.656;2022-10-19T10:03:07;13.60;99.90
27544;DHT22;17996;51.056;3.656;2022-10-19T10:05:39;13.60;99.90
27544;DHT22;17996;51.056;3.656;2022-10-19T10:08:17;13.60;99.90
27544;DHT22;17996;51.056;3.656;2022-10-19T10:10:46;13.60;99.90
27544;DHT22;17996;51.056;3.656;2022-10-19T10:13:18;13.70;99.90
27544;DHT22;17996;51.056;3.656;2022-10-19T10:15:48;13.70;99.90
27544;DHT22;17996;51.056;3.656;2022-10-19T10:18:16;13.80;99.90
27544;DHT22;17996;51.056;3.656;2022-10-19T10:23:31;13.90;99.90
27544;DHT22;17996;51.056;3.656;2022-10-19T10:25:59;14.00;99.90
27544;DHT22;17996;51.056;3.656;2022-10-19T10:28:27;14.10;99.90
27544;DHT22;17996;51.056;3.656;2022-10-19T10:31:02;14.30;99.90
27544;DHT22;17996;51.056;3.656;2022-10-19T10:33:32;14.20;99.90
27544;DHT22;17996;51.056;3.656;2022-10-19T10:36:04;14.30;99.90
27544;DHT22;17996;51.056;3.656;2022-10-19T10:38:44;14.20;99.90
27544;DHT22;17996;51.056;3.656;2022-10-19T10:41:14;14.30;99.90
27544;DHT22;17996;51.056;3.656;2022-10-19T10:43:54;14.30;99.90
27544;DHT22;17996;51.056;3.656;2022-10-19T10:46:26;14.40;99.90
27544;DHT22;17996;51.056;3.656;2022-10-19T10:48:58;14.40;99.90
27544;DHT22;17996;51.056;3.656;2022-10-19T10:51:38;14.50;99.90
27544;DHT22;17996;51.056;3.656;2022-10-19T10:54:18;14.50;99.90
27544;DHT22;17996;51.056;3.656;2022-10-19T11:00:20;14.60;99.90
27544;DHT22;17996;51.056;3.656;2022-10-19T11:02:46;14.60;99.90
27544;DHT22;17996;51.056;3.656;2022-10-19T11:05:31;14.70;99.90
27544;DHT22;17996;51.056;3.656;2022-10-19T11:10:42;14.60;99.90
27544;DHT22;17996;51.056;3.656;2022-10-19T11:13:14;14.70;99.90
27544;DHT22;17996;51.056;3.656;2022-10-19T11:16:01;14.90;99.90
27544;DHT22;17996;51.056;3.656;2022-10-19T11:18:34;14.70;99.90
27544;DHT22;17996;51.056;3.656;2022-10-19T11:21:10;14.70;99.90
27544;DHT22;17996;51.056;3.656;2022-10-19T11:26:42;14.80;99.90
27544;DHT22;17996;51.056;3.656;2022-10-19T11:32:07;15.00;99.90
27544;DHT22;17996;51.056;3.656;2022-10-19T11:34:52;15.00;99.90
27544;DHT22;17996;51.056;3.656;2022-10-19T11:39:58;15.00;99.90
27544;DHT22;17996;51.056;3.656;2022-10-19T11:42:39;15.10;99.90
27544;DHT22;17996;51.056;3.656;2022-10-19T11:48:34;15.40;99.90
27544;DHT22;17996;51.056;3.656;2022-10-19T11:54:00;15.40;99.90
27544;DHT22;17996;51.056;3.656;2022-10-19T11:59:30;15.50;99.90
27544;DHT22;17996;51.056;3.656;2022-10-19T12:02:39;15.40;99.90
27544;DHT22;17996;51.056;3.656;2022-10-19T12:05:08;15.50;99.90
27544;DHT22;17996;51.056;3.656;2022-10-19T12:07:55;15.50;99.90
27544;DHT22;17996;51.056;3.656;2022-10-19T12:13:34;15.50;99.90
27544;DHT22;17996;51.056;3.656;2022-10-19T12:16:00;15.60;99.90
27544;DHT22;17996;51.056;3.656;2022-10-19T12:18:54;15.60;99.90
27544;DHT22;17996;51.056;3.656;2022-10-19T12:23:51;15.70;99.90
27544;DHT22;17996;51.056;3.656;2022-10-19T12:26:19;15.70;99.90
27544;DHT22;17996;51.056;3.656;2022-10-19T12:28:58;15.90;99.90
27544;DHT22;17996;51.056;3.656;2022-10-19T12:31:26;15.80;99.90
27544;DHT22;17996;51.056;3.656;2022-10-19T12:39:57;15.90;99.90
27544;DHT22;17996;51.056;3.656;2022-10-19T12:45:18;16.00;99.90
27544;DHT22;17996;51.056;3.656;2022-10-19T12:53:32;15.90;99.90
27544;DHT22;17996;51.056;3.656;2022-10-19T12:56:01;16.10;99.90
27544;DHT22;17996;51.056;3.656;2022-10-19T12:58:44;16.10;99.90
27544;DHT22;17996;51.056;3.656;2022-10-19T13:03:52;16.30;99.90
27544;DHT22;17996;51.056;3.656;2022-10-19T13:06:32;16.30;99.90
27544;DHT22;17996;51.056;3.656;2022-10-19T13:09:04;16.20;99.90
27544;DHT22;17996;51.056;3.656;2022-10-19T13:11:31;16.20;99.90
27544;DHT22;17996;51.056;3.656;2022-10-19T13:14:04;16.10;99.90
27544;DHT22;17996;51.056;3.656;2022-10-19T13:16:38;16.20;99.90
27544;DHT22;17996;51.056;3.656;2022-10-19T13:22:31;16.30;99.90
27544;DHT22;17996;51.056;3.656;2022-10-19T13:24:37;16.20;99.90
27544;DHT22;17996;51.056;3.656;2022-10-19T13:32:34;16.20;99.90
27544;DHT22;17996;51.056;3.656;2022-10-19T13:46:12;16.80;99.90
27544;DHT22;17996;51.056;3.656;2022-10-19T13:52:01;16.70;99.90
27544;DHT22;17996;51.056;3.656;2022-10-19T14:08:07;16.60;99.90
27544;DHT22;17996;51.056;3.656;2022-10-19T14:10:36;16.50;99.90
27544;DHT22;17996;51.056;3.656;2022-10-19T14:13:04;16.60;99.90
27544;DHT22;17996;51.056;3.656;2022-10-19T14:15:33;16.80;99.90
27544;DHT22;17996;51.056;3.656;2022-10-19T14:17:59;16.70;99.90
27544;DHT22;17996;51.056;3.656;2022-10-19T14:20:32;16.70;99.90
27544;DHT22;17996;51.056;3.656;2022-10-19T14:23:17;16.70;99.90
27544;DHT22;17996;51.056;3.656;2022-10-19T14:25:49;16.70;99.90
27544;DHT22;17996;51.056;3.656;2022-10-19T14:28:15;16.70;99.90
27544;DHT22;17996;51.056;3.656;2022-10-19T14:30:42;16.90;99.90
27544;DHT22;17996;51.056;3.656;2022-10-19T14:33:09;16.90;99.90
27544;DHT22;17996;51.056;3.656;2022-10-19T14:35:38;16.90;99.90
27544;DHT22;17996;51.056;3.656;2022-10-19T14:38:08;16.90;99.90
27544;DHT22;17996;51.056;3.656;2022-10-19T14:40:40;16.80;99.90
27544;DHT22;17996;51.056;3.656;2022-10-19T14:43:24;17.00;99.90
27544;DHT22;17996;51.056;3.656;2022-10-19T14:48:42;17.10;99.90
27544;DHT22;17996;51.056;3.656;2022-10-19T14:56:32;17.00;99.90
27544;DHT22;17996;51.056;3.656;2022-10-19T15:01:48;16.90;99.90
27544;DHT22;17996;51.056;3.656;2022-10-19T15:04:19;16.80;99.90
27544;DHT22;17996;51.056;3.656;2022-10-19T15:06:47;16.70;99.90
27544;DHT22;17996;51.056;3.656;2022-10-19T15:09:26;16.60;99.90
27544;DHT22;17996;51.056;3.656;2022-10-19T15:11:59;16.70;99.90
27544;DHT22;17996;51.056;3.656;2022-10-19T15:14:31;16.70;99.90
27544;DHT22;17996;51.056;3.656;2022-10-19T15:17:02;16.80;99.90
27544;DHT22;17996;51.056;3.656;2022-10-19T15:22:20;16.90;99.90
27544;DHT22;17996;51.056;3.656;2022-10-19T15:27:32;17.20;99.90
27544;DHT22;17996;51.056;3.656;2022-10-19T15:30:23;17.40;99.90
27544;DHT22;17996;51.056;3.656;2022-10-19T15:32:53;17.50;99.90
27544;DHT22;17996;51.056;3.656;2022-10-19T15:37:59;17.10;99.90
27544;DHT22;17996;51.056;3.656;2022-10-19T15:40:32;17.00;99.90
27544;DHT22;17996;51.056;3.656;2022-10-19T15:42:58;16.90;99.90
27544;DHT22;17996;51.056;3.656;2022-10-19T15:50:49;16.60;99.90
27544;DHT22;17996;51.056;3.656;2022-10-19T15:53:16;16.30;99.90
27544;DHT22;17996;51.056;3.656;2022-10-19T15:55:43;16.30;99.90
27544;DHT22;17996;51.056;3.656;2022-10-19T15:58:12;16.20;99.90
27544;DHT22;17996;51.056;3.656;2022-10-19T16:00:39;16.00;99.90
27544;DHT22;17996;51.056;3.656;2022-10-19T16:03:05;16.00;99.90
27544;DHT22;17996;51.056;3.656;2022-10-19T16:05:31;16.10;99.90
27544;DHT22;17996;51.056;3.656;2022-10-19T16:07:57;16.10;99.90
27544;DHT22;17996;51.056;3.656;2022-10-19T16:10:25;16.00;99.90
27544;DHT22;17996;51.056;3.656;2022-10-19T16:12:51;15.90;99.90
27544;DHT22;17996;51.056;3.656;2022-10-19T16:15:19;15.80;99.90
27544;DHT22;17996;51.056;3.656;2022-10-19T16:17:56;15.80;99.90
27544;DHT22;17996;51.056;3.656;2022-10-19T16:20:24;15.80;99.90
27544;DHT22;17996;51.056;3.656;2022-10-19T16:22:50;15.70;99.90
27544;DHT22;17996;51.056;3.656;2022-10-19T16:25:16;15.70;99.90
27544;DHT22;17996;51.056;3.656;2022-10-19T16:27:42;15.70;99.90
27544;DHT22;17996;51.056;3.656;2022-10-19T16:30:08;15.70;99.90
27544;DHT22;17996;51.056;3.656;2022-10-19T16:32:34;15.60;99.90
27544;DHT22;17996;51.056;3.656;2022-10-19T16:35:00;15.60;99.90
27544;DHT22;17996;51.056;3.656;2022-10-19T16:37:26;15.60;99.90
27544;DHT22;17996;51.056;3.656;2022-10-19T16:39:52;15.40;99.90
27544;DHT22;17996;51.056;3.656;2022-10-19T16:42:17;15.40;99.90
27544;DHT22;17996;51.056;3.656;2022-10-19T16:44:43;15.30;99.90
27544;DHT22;17996;51.056;3.656;2022-10-19T16:47:08;15.30;99.90
27544;DHT22;17996;51.056;3.656;2022-10-19T16:49:34;15.20;99.90
27544;DHT22;17996;51.056;3.656;2022-10-19T16:52:00;15.20;99.90
27544;DHT22;17996;51.056;3.656;2022-10-19T16:54:27;15.20;99.90
27544;DHT22;17996;51.056;3.656;2022-10-19T16:56:59;15.10;99.90
27544;DHT22;17996;51.056;3.656;2022-10-19T16:59:25;15.10;99.90
27544;DHT22;17996;51.056;3.656;2022-10-19T17:01:51;15.10;99.90
27544;DHT22;17996;51.056;3.656;2022-10-19T17:04:19;15.20;99.90
27544;DHT22;17996;51.056;3.656;2022-10-19T17:06:44;15.00;99.90
27544;DHT22;17996;51.056;3.656;2022-10-19T17:09:10;15.00;99.90
27544;DHT22;17996;51.056;3.656;2022-10-19T17:11:37;15.00;99.90
27544;DHT22;17996;51.056;3.656;2022-10-19T17:14:06;15.00;99.90
27544;DHT22;17996;51.056;3.656;2022-10-19T17:16:34;15.00;99.90
27544;DHT22;17996;51.056;3.656;2022-10-19T17:19:01;14.90;99.90
27544;DHT22;17996;51.056;3.656;2022-10-19T17:21:30;14.90;99.90
27544;DHT22;17996;51.056;3.656;2022-10-19T17:24:01;14.90;99.90
27544;DHT22;17996;51.056;3.656;2022-10-19T17:26:36;14.90;99.90
27544;DHT22;17996;51.056;3.656;2022-10-19T17:29:03;14.90;99.90
27544;DHT22;17996;51.056;3.656;2022-10-19T17:31:29;14.90;99.90
27544;DHT22;17996;51.056;3.656;2022-10-19T17:33:55;14.80;99.90
27544;DHT22;17996;51.056;3.656;2022-10-19T17:36:23;14.90;99.90
27544;DHT22;17996;51.056;3.656;2022-10-19T17:38:55;14.90;99.90
27544;DHT22;17996;51.056;3.656;2022-10-19T17:41:21;15.00;99.90
27544;DHT22;17996;51.056;3.656;2022-10-19T17:43:48;14.80;99.90
27544;DHT22;17996;51.056;3.656;2022-10-19T17:46:17;14.80;99.90
27544;DHT22;17996;51.056;3.656;2022-10-19T17:48:43;14.80;99.90
27544;DHT22;17996;51.056;3.656;2022-10-19T17:51:18;14.80;99.90
27544;DHT22;17996;51.056;3.656;2022-10-19T17:53:46;14.80;99.90
27544;DHT22;17996;51.056;3.656;2022-10-19T17:56:14;14.90;99.90
27544;DHT22;17996;51.056;3.656;2022-10-19T17:58:40;14.70;99.90
27544;DHT22;17996;51.056;3.656;2022-10-19T18:01:08;14.80;99.90
27544;DHT22;17996;51.056;3.656;2022-10-19T18:03:35;14.70;99.90
27544;DHT22;17996;51.056;3.656;2022-10-19T18:06:16;14.60;99.90
27544;DHT22;17996;51.056;3.656;2022-10-19T18:08:44;14.60;99.90
27544;DHT22;17996;51.056;3.656;2022-10-19T18:11:15;14.80;99.90
27544;DHT22;17996;51.056;3.656;2022-10-19T18:13:43;14.60;99.90
27544;DHT22;17996;51.056;3.656;2022-10-19T18:16:11;14.60;99.90
27544;DHT22;17996;51.056;3.656;2022-10-19T18:18:39;14.60;99.90
27544;DHT22;17996;51.056;3.656;2022-10-19T18:21:08;14.60;99.90
27544;DHT22;17996;51.056;3.656;2022-10-19T18:23:34;14.50;99.90
27544;DHT22;17996;51.056;3.656;2022-10-19T18:26:02;14.50;99.90
27544;DHT22;17996;51.056;3.656;2022-10-19T18:28:31;14.50;99.90
27544;DHT22;17996;51.056;3.656;2022-10-19T18:31:07;14.50;99.90
27544;DHT22;17996;51.056;3.656;2022-10-19T18:33:33;14.50;99.90